Date,TemperatureHighF,TemperatureAvgF,TemperatureLowF,DewpointHighF,DewpointAvgF,DewpointLowF,HumidityHigh,HumidityAvg,HumidityLow,PressureMaxIn,PressureMinIn,WindSpeedMaxMPH,WindSpeedAvgMPH,GustSpeedMaxMPH,PrecipitationSumIn
2012-1-1,36,27,13,20,14,4,70,59,42,0.00,40.00,0,0,0,0.00
2012-1-2,52,41,32,22,20,18,60,45,28,0.00,40.00,1,0,1,0.00
2012-1-3,50,43,40,19,18,16,41,36,29,0.00,40.00,1,0,1,0.00
2012-1-4,57,50,43,23,19,16,37,30,27,0.00,40.00,0,0,1,0.00
2012-1-5,52,45,34,25,19,14,47,35,27,0.00,40.00,0,0,0,0.00
2012-1-6,35,29,21,15,11,7,56,46,39,0.00,40.00,0,0,0,0.00
2012-1-7,35,26,18,15,12,8,71,57,40,0.00,40.00,0,0,0,0.00
2012-1-8,41,36,27,26,22,14,62,58,54,0.00,40.00,0,0,0,0.00
2012-1-9,49,42,34,25,23,20,66,48,34,0.00,40.00,0,0,1,0.00
2012-1-10,43,32,15,29,21,3,92,66,42,0.00,40.00,0,0,1,0.00
2012-1-11,22,14,-1,8,3,-7,75,63,55,0.00,40.00,18,8,21,0.00
2012-1-12,32,23,15,13,9,5,65,55,42,0.00,40.00,21,13,26,0.00
2012-1-13,40,34,28,12,10,7,45,36,28,0.00,40.00,23,11,27,0.00
2012-1-14,46,37,31,17,14,10,47,38,28,0.00,40.00,28,17,32,0.00
2012-1-15,40,16,-1,23,5,-5,84,65,34,0.00,40.00,19,12,26,0.00
2012-1-16,2,-2,-9,-2,-7,-13,84,81,76,0.00,40.00,10,4,12,0.00
2012-1-17,25,-3,-13,13,-8,-17,83,78,56,0.00,40.00,17,6,22,0.00
2012-1-18,-12,-17,-23,-17,-22,-27,79,77,75,0.00,40.00,12,6,16,0.00
2012-1-19,-4,-9,-15,-10,-14,-20,80,78,75,0.00,40.00,6,3,7,0.00
2012-1-20,38,9,-8,30,4,-13,86,79,68,0.00,40.00,19,6,21,0.00
2012-1-21,42,38,32,31,26,14,70,62,47,0.00,40.00,26,18,30,0.00
2012-1-22,32,28,19,14,12,8,61,50,47,0.00,40.00,22,15,25,0.00
2012-1-23,37,30,17,23,14,4,61,52,38,0.00,40.00,26,18,30,0.00
2012-1-24,38,26,14,20,10,5,67,51,33,0.00,40.00,39,20,47,0.00
2012-1-25,41,37,30,30,22,16,71,55,41,0.00,40.00,49,24,55,0.00
2012-1-26,42,35,26,29,21,12,70,58,39,0.00,40.00,32,19,37,0.00
2012-1-27,29,25,18,15,8,4,61,47,35,0.00,40.00,22,17,26,0.00
2012-1-28,37,28,22,24,12,6,62,50,43,0.00,40.00,26,18,32,0.00
2012-1-29,49,43,35,31,27,24,67,53,38,0.00,40.00,40,19,50,0.00
2012-1-30,42,40,35,29,24,18,65,53,44,0.00,40.00,28,17,32,0.00
2012-1-31,41,34,29,21,19,16,63,54,39,0.00,40.00,25,16,30,0.00
2012-2-1,42,35,30,23,19,16,64,52,39,0.00,40.00,25,16,28,0.00
2012-2-2,35,29,20,29,24,18,93,79,64,0.00,40.00,17,5,20,0.00
2012-2-3,38,25,13,27,17,11,93,75,43,0.00,40.00,19,8,22,0.00
2012-2-4,41,30,23,18,16,14,71,57,37,0.00,40.00,23,18,29,0.00
2012-2-5,44,30,23,25,16,13,82,55,31,0.00,40.00,17,12,18,0.00
2012-2-6,31,25,20,25,21,18,92,84,76,0.00,40.00,16,9,19,0.00
2012-2-7,21,18,15,18,15,13,92,88,82,0.00,40.00,9,5,12,0.00
2012-2-8,42,28,12,21,16,10,91,66,36,0.00,40.00,21,12,24,0.00
2012-2-9,47,34,19,25,21,13,77,58,41,0.00,40.00,13,6,15,0.00
2012-2-10,19,17,13,14,12,10,91,81,73,0.00,40.00,14,7,16,0.00
2012-2-11,22,15,11,16,12,9,91,86,74,0.00,40.00,14,3,16,0.00
2012-2-12,35,27,18,26,21,15,87,78,67,0.00,40.00,17,11,20,0.00
2012-2-13,39,32,24,24,22,19,82,67,48,0.00,40.00,12,7,12,0.00
2012-2-14,36,27,16,22,19,12,92,71,51,0.00,40.00,12,5,17,0.00
2012-2-15,37,22,11,21,12,6,82,66,42,0.00,40.00,17,7,19,0.00
2012-2-16,37,30,24,19,15,13,61,52,41,0.00,40.00,23,17,27,0.00
2012-2-17,42,32,23,22,19,16,82,61,38,0.00,40.00,17,10,19,0.00
2012-2-18,41,33,27,25,19,13,72,56,38,0.00,40.00,25,16,30,0.00
2012-2-19,38,29,23,18,15,10,69,56,37,0.00,40.00,24,15,28,0.00
2012-2-20,34,29,25,20,16,14,70,58,45,0.00,40.00,14,11,17,0.00
2012-2-21,41,36,28,29,24,19,70,60,53,0.00,40.00,38,16,44,0.00
2012-2-22,43,35,18,35,28,16,94,76,52,0.00,40.00,27,11,32,0.02
2012-2-23,32,24,13,17,13,8,91,64,44,0.00,40.00,16,8,18,0.02
2012-2-24,36,32,20,20,18,13,75,57,49,0.00,40.00,24,16,26,0.00
2012-2-25,37,30,16,24,18,9,78,60,45,0.00,40.00,22,15,26,0.00
2012-2-26,24,16,10,12,8,4,89,71,59,0.00,40.00,10,6,12,0.00
2012-2-27,36,21,7,18,9,1,91,66,28,0.00,40.00,9,3,11,0.00
2012-2-28,37,26,14,13,9,5,70,52,31,0.00,40.00,16,9,19,0.00
2012-2-29,38,29,21,22,14,8,61,52,41,0.00,40.00,25,15,29,0.00
2012-3-1,34,27,18,20,12,9,91,57,40,0.00,40.00,22,12,26,0.00
2012-3-2,33,26,13,18,11,6,92,59,31,0.00,40.00,31,12,34,0.00
2012-3-3,45,37,29,27,21,15,61,53,45,0.00,40.00,36,21,44,0.00
2012-3-4,52,45,39,25,22,16,51,40,30,0.00,40.00,26,19,31,0.00
2012-3-5,56,46,36,32,22,19,83,40,27,0.00,40.00,36,19,42,0.00
2012-3-6,36,26,14,32,16,7,85,64,49,0.00,40.00,22,10,27,0.00
2012-3-7,39,27,14,12,10,8,80,51,27,0.00,40.00,22,13,26,0.00
2012-3-8,46,38,23,19,17,13,69,45,33,0.00,40.00,27,16,30,0.00
2012-3-9,61,51,41,18,15,12,34,24,17,0.00,40.00,30,19,35,0.00
2012-3-10,60,49,38,22,17,12,47,29,21,0.00,40.00,25,14,29,0.00
2012-3-11,40,40,40,22,22,22,47,47,47,0.00,40.00,12,12,14,0.00
2012-3-12,49,40,26,27,20,11,64,45,38,0.00,40.00,32,19,35,0.00
2012-3-13,55,42,29,29,21,9,74,45,28,0.00,40.00,39,20,45,0.00
2012-3-14,46,36,29,26,18,9,58,48,36,0.00,40.00,24,15,30,0.00
2012-3-15,59,48,39,33,30,26,66,51,37,0.00,40.00,36,23,39,0.01
2012-3-16,49,44,33,36,31,25,75,60,44,0.00,40.00,26,14,29,0.00
2012-3-17,44,37,32,39,32,25,90,81,55,0.00,40.00,14,7,17,0.01
2012-3-18,37,32,28,30,28,25,95,84,68,0.00,40.00,16,8,19,0.02
2012-3-19,41,31,25,26,21,9,94,70,44,0.00,40.00,26,14,29,0.05
2012-3-20,39,33,23,30,19,7,83,57,47,0.00,40.00,29,20,37,0.00
2012-3-21,50,39,31,30,27,24,85,64,47,0.00,40.00,22,11,27,0.00
2012-3-22,59,48,38,30,26,22,69,44,28,0.00,40.00,30,13,34,0.00
2012-3-23,38,30,25,28,25,20,94,83,52,0.00,40.00,13,7,15,0.02
2012-3-24,28,26,23,26,25,22,94,93,91,0.00,40.00,9,5,11,0.00
2012-3-25,35,29,26,29,27,24,94,91,77,0.00,40.00,6,3,8,0.00
2012-3-26,41,33,26,35,29,24,94,88,72,0.00,40.00,13,4,16,0.00
2012-3-27,55,43,32,32,19,14,91,42,21,0.00,40.00,22,12,27,0.00
2012-3-28,51,42,32,32,25,20,72,52,35,0.00,40.00,35,12,41,0.00
2012-3-29,53,37,32,23,21,18,70,55,25,0.00,40.00,20,15,24,0.00
2012-3-30,59,51,39,37,32,29,81,51,33,0.00,40.00,37,25,43,0.00
2012-3-31,65,51,39,37,34,30,80,55,30,0.00,40.00,24,12,29,0.01
2012-4-1,50,42,31,36,22,11,78,46,30,0.00,40.00,29,15,31,0.02
2012-4-2,49,38,26,17,13,10,64,38,22,0.00,40.00,16,10,19,0.00
2012-4-3,60,44,28,22,17,12,54,36,18,0.00,40.00,26,16,30,0.00
2012-4-4,66,48,31,28,20,9,40,33,24,0.00,40.00,31,14,37,0.00
2012-4-5,48,37,29,19,16,9,60,44,27,0.00,40.00,14,7,16,0.00
2012-4-6,36,31,27,28,24,17,94,77,48,0.00,40.00,17,11,20,0.02
2012-4-7,43,33,24,24,15,6,90,52,23,0.00,40.00,24,12,29,0.01
2012-4-8,49,35,19,18,12,7,74,44,21,0.00,40.00,11,4,12,0.01
2012-4-9,51,36,23,24,19,13,78,52,30,0.00,40.00,10,4,11,0.00
2012-4-10,56,42,28,29,26,24,86,58,33,0.00,40.00,10,5,13,0.00
2012-4-11,61,46,30,32,28,26,87,53,30,0.00,40.00,11,5,16,0.00
2012-4-12,52,46,39,40,29,18,89,55,31,0.00,40.00,23,12,25,0.00
2012-4-13,54,44,34,26,20,14,69,42,20,0.00,40.00,23,13,27,0.00
2012-4-15,34,32,30,24,22,19,77,68,55,0.00,40.00,11,6,12,0.00
2012-4-16,52,41,28,31,25,21,86,57,30,0.00,40.00,24,13,27,0.00
2012-4-17,54,46,34,30,23,14,69,43,21,0.00,40.00,18,11,23,0.00
2012-4-18,51,43,36,34,29,21,83,60,33,0.00,40.00,20,8,24,0.00
2012-4-19,53,44,36,29,23,17,67,47,26,0.00,40.00,17,11,20,0.00
2012-4-20,62,52,42,36,30,23,60,44,31,0.00,40.00,34,20,40,0.00
2012-4-21,60,51,40,37,35,32,74,56,38,0.00,40.00,16,6,17,0.00
2012-4-22,78,58,33,37,29,21,89,45,12,0.00,40.00,22,8,27,0.00
2012-4-23,82,63,43,42,36,29,60,39,22,0.00,40.00,18,10,21,0.00
2012-4-24,74,63,56,41,38,34,52,40,26,0.00,40.00,27,12,32,0.00
2012-4-25,72,61,50,41,37,32,57,43,28,0.00,40.00,22,13,25,0.00
2012-4-26,70,54,46,47,42,36,92,67,31,0.00,40.00,19,10,23,0.01
2012-4-27,48,42,38,42,26,20,79,54,41,0.00,40.00,27,19,32,0.00
2012-4-28,41,38,36,32,28,21,88,70,43,0.00,40.00,18,9,22,0.00
2012-4-30,59,50,42,38,31,25,63,49,39,0.00,40.00,25,16,30,0.00
2012-5-1,50,44,35,29,21,15,69,42,30,0.00,40.00,32,18,39,0.00
2012-5-2,51,40,27,24,20,16,67,45,27,0.00,40.00,25,11,29,0.00
2012-5-3,54,42,25,37,27,16,83,56,33,0.00,40.00,19,10,22,0.00
2012-5-4,60,49,39,38,29,21,92,52,23,0.00,40.00,23,13,29,0.01
2012-5-5,49,42,36,36,22,-100,92,51,28,0.00,40.00,29,15,35,0.01
2012-5-6,54,44,37,24,20,17,52,40,25,0.00,40.00,18,10,22,0.00
2012-5-7,65,47,28,26,23,18,71,42,23,0.00,40.00,9,3,11,0.00
2012-5-8,73,56,35,32,27,24,67,37,18,0.00,40.00,17,8,21,0.00
2012-5-9,73,63,51,34,28,21,36,28,17,0.00,40.00,31,18,42,0.00
2012-5-10,51,46,33,24,14,6,38,28,19,0.00,40.00,32,17,37,0.00
2012-5-11,60,46,23,17,12,6,49,27,16,0.00,40.00,12,8,16,0.00
2012-5-12,68,50,29,23,15,-100,48,29,14,0.00,40.00,17,5,21,0.00
2012-5-13,78,58,38,30,22,16,40,27,12,0.00,40.00,14,5,17,0.00
2012-5-14,75,57,41,32,24,16,44,29,19,0.00,40.00,13,5,16,0.00
2012-5-15,86,66,39,38,31,26,67,32,12,0.00,40.00,17,9,22,0.00
2012-5-16,80,67,55,39,32,24,39,28,19,0.00,40.00,18,10,21,0.00
2012-5-17,65,55,45,45,37,28,87,53,33,0.00,40.00,18,9,22,0.00
2012-5-18,58,50,40,45,34,28,87,56,39,0.00,40.00,28,10,32,0.00
2012-5-19,65,48,30,33,23,-100,90,46,20,0.00,40.00,14,6,17,0.00
2012-5-20,70,55,32,32,29,25,82,43,23,0.00,40.00,20,8,24,0.00
2012-5-21,75,63,54,47,40,31,71,44,30,0.00,40.00,24,11,30,0.00
2012-5-22,58,53,44,48,35,25,81,51,33,0.00,40.00,27,17,33,0.00
2012-5-23,58,48,40,31,27,21,63,46,30,0.00,40.00,29,17,32,0.00
2012-5-24,44,40,33,34,31,22,93,71,47,0.00,40.00,17,10,21,0.00
2012-5-25,44,40,35,34,31,24,92,73,46,0.00,40.00,24,13,30,0.00
2012-5-26,39,36,32,35,32,30,95,86,69,0.00,40.00,19,13,21,0.01
2012-5-27,36,33,32,32,31,30,95,92,83,0.00,40.00,20,10,23,0.01
2012-5-28,55,39,31,35,32,29,93,77,39,0.00,40.00,13,5,17,0.03
2012-5-29,61,50,37,38,30,22,90,53,25,0.00,40.00,27,10,30,0.00
2012-5-30,60,52,45,30,25,21,54,35,29,0.00,40.00,19,10,22,0.00
2012-5-31,62,54,40,41,35,30,73,50,36,0.00,40.00,19,12,22,0.00
2012-6-1,68,60,50,43,41,38,70,50,38,0.00,40.00,25,13,30,0.00
2012-6-2,73,60,50,49,39,-100,63,48,34,0.00,40.00,28,13,30,0.00
2012-6-3,72,57,45,41,36,34,68,48,30,0.00,40.00,19,11,24,0.00
2012-6-4,72,59,45,51,44,39,84,60,37,0.00,40.00,15,6,16,0.00
2012-6-5,72,61,46,57,50,37,95,69,43,0.00,40.00,43,9,51,0.04
2012-6-6,56,47,40,37,29,21,72,51,28,0.00,40.00,32,23,38,0.04
2012-6-7,70,54,36,27,25,21,68,36,18,0.00,40.00,22,12,27,0.00
2012-6-8,65,55,47,37,31,26,60,41,25,0.00,40.00,36,10,41,0.00
2012-6-9,54,47,39,32,26,14,75,48,25,0.00,40.00,18,12,22,0.00
2012-6-10,54,46,41,39,33,26,78,60,48,0.00,40.00,24,14,27,0.01
2012-6-11,65,53,43,39,35,28,80,54,30,0.00,40.00,16,11,17,0.00
2012-6-12,69,58,44,39,35,31,69,44,25,0.00,40.00,21,8,25,0.00
2012-6-13,63,56,51,42,37,31,68,50,35,0.00,40.00,29,17,36,0.00
2012-6-14,69,55,42,38,32,26,77,44,22,0.00,40.00,14,7,18,0.00
2012-6-15,70,57,48,36,31,25,62,39,19,0.00,40.00,17,8,20,0.00
2012-6-16,70,53,40,37,27,-100,85,48,15,0.00,40.00,17,9,20,0.00
2012-6-17,72,64,54,47,37,29,53,39,27,0.00,40.00,40,20,49,0.00
2012-6-18,64,56,46,36,34,30,59,44,30,0.00,40.00,35,15,39,0.00
2012-6-19,61,51,40,41,35,31,73,56,41,0.00,40.00,21,14,24,0.00
2012-6-20,70,57,47,39,36,33,66,48,31,0.00,40.00,10,5,12,0.00
2012-6-21,77,55,40,41,38,34,88,59,25,0.00,40.00,17,6,20,0.00
2012-6-22,71,58,46,48,44,37,90,62,40,0.00,40.00,17,10,21,0.00
2012-6-23,75,60,51,55,49,45,87,69,44,0.00,40.00,25,14,28,0.00
2012-6-24,79,66,52,57,52,49,91,64,37,0.00,40.00,22,9,24,0.00
2012-6-25,80,68,59,58,55,52,88,67,40,0.00,40.00,17,8,20,0.00
2012-6-26,65,60,49,56,42,20,87,58,19,0.00,40.00,40,14,52,0.00
2012-6-27,70,57,47,31,27,23,45,33,21,0.00,40.00,27,16,35,0.00
2012-6-28,87,67,46,34,29,24,50,28,11,0.00,40.00,15,7,16,0.00
2012-6-29,80,67,51,41,37,32,56,35,24,0.00,40.00,21,11,24,0.00
2012-6-30,86,72,48,45,41,36,78,36,19,0.00,40.00,18,8,26,0.00
2012-7-1,77,66,56,50,46,42,77,51,31,0.00,40.00,11,7,14,0.00
2012-7-2,85,68,51,50,41,28,84,45,17,0.00,40.00,17,10,19,0.00
2012-7-3,77,66,52,45,37,21,65,37,20,0.00,40.00,29,16,34,0.00
2012-7-4,78,64,46,29,24,16,40,24,12,0.00,40.00,24,14,28,0.00
2012-7-5,82,67,48,43,36,26,48,33,23,0.00,40.00,23,9,26,0.00
2012-7-6,86,67,49,47,43,40,78,46,24,0.00,40.00,27,6,34,0.00
2012-7-7,92,70,51,49,44,40,72,43,19,0.00,40.00,17,6,19,0.00
2012-7-8,91,75,59,50,44,39,58,37,21,0.00,40.00,14,6,14,0.00
2012-7-9,95,78,53,51,43,39,60,33,18,0.00,40.00,22,8,26,0.00
2012-7-10,89,78,64,51,46,40,52,33,22,0.00,40.00,19,10,22,0.00
2012-7-11,91,73,55,54,47,40,78,46,19,0.00,40.00,11,6,12,0.00
2012-7-12,95,76,53,50,43,35,70,37,15,0.00,40.00,19,10,23,0.00
2012-7-13,83,72,58,60,49,36,58,45,29,0.00,40.00,17,7,21,0.00
2012-7-14,72,64,60,59,57,52,89,77,57,0.00,40.00,22,6,26,0.01
2012-7-15,79,66,58,56,49,40,92,61,27,0.00,40.00,22,11,27,0.06
2012-7-16,75,64,50,54,47,44,82,57,35,0.00,40.00,8,5,9,0.00
2012-7-17,85,70,59,56,52,40,88,58,21,0.00,40.00,18,7,22,0.00
2012-7-18,92,79,59,52,43,37,63,32,16,0.00,40.00,22,12,26,0.00
2012-7-19,88,69,60,50,44,41,55,42,21,0.00,40.00,14,3,17,0.00
2012-7-20,89,74,63,58,51,45,80,47,28,0.00,40.00,21,7,27,0.00
2012-7-21,86,72,58,58,42,28,88,42,13,0.00,40.00,24,10,32,0.00
2012-7-22,87,76,50,42,39,37,63,30,17,0.00,40.00,24,10,26,0.00
2012-7-23,85,69,57,46,44,41,63,43,24,0.00,40.00,22,12,26,0.00
2012-7-25,78,65,46,44,42,36,75,45,30,0.00,40.00,12,6,15,0.00
2012-7-26,77,64,52,50,46,43,80,56,35,0.00,40.00,11,5,12,0.00
2012-7-27,87,66,54,55,47,40,81,56,21,0.00,40.00,22,8,27,0.00
2012-7-28,68,63,59,51,47,45,62,55,46,0.00,40.00,22,10,27,0.00
2012-7-29,88,80,67,45,42,40,37,27,22,0.00,40.00,11,7,12,0.00
2012-7-30,93,72,51,47,41,37,60,36,18,0.00,40.00,25,9,27,0.00
2012-7-31,89,76,54,48,41,34,58,31,16,0.00,40.00,26,9,29,0.00
2012-8-1,83,70,53,49,41,33,63,38,22,0.00,40.00,13,5,15,0.00
2012-8-2,77,64,50,47,37,31,54,38,26,0.00,40.00,15,8,19,0.00
2012-8-3,66,54,42,44,36,30,93,58,26,0.00,40.00,13,6,16,0.00
2012-8-4,82,66,41,40,31,23,83,37,12,0.00,40.00,13,6,14,0.00
2012-8-5,90,71,48,38,34,28,52,30,15,0.00,40.00,13,5,17,0.00
2012-8-6,93,72,53,45,41,37,58,35,19,0.00,40.00,22,6,26,0.00
2012-8-7,91,75,58,47,38,30,53,29,15,0.00,40.00,20,9,23,0.00
2012-8-8,97,69,51,52,38,30,60,35,16,0.00,40.00,49,8,61,0.00
2012-8-9,91,75,57,52,45,34,72,39,17,0.00,40.00,18,7,21,0.00
2012-8-10,83,70,56,49,42,36,55,37,28,0.00,40.00,20,9,24,0.00
2012-8-11,81,69,53,51,47,43,79,49,30,0.00,40.00,18,8,24,0.00
2012-8-12,83,68,51,49,46,39,87,51,25,0.00,40.00,12,6,15,0.00
2012-8-13,85,68,50,48,44,37,87,49,21,0.00,40.00,13,6,16,0.00
2012-8-14,88,74,57,41,37,30,47,29,17,0.00,40.00,38,10,43,0.00
2012-8-15,54,52,47,47,41,35,92,69,48,0.00,40.00,22,10,27,0.00
2012-8-16,78,58,41,41,38,27,92,54,23,0.00,40.00,13,4,17,0.00
2012-8-17,83,65,43,40,33,25,79,38,12,0.00,40.00,12,4,15,0.00
2012-8-18,84,67,49,39,34,31,61,35,16,0.00,40.00,15,5,16,0.00
2012-8-19,92,68,46,41,35,32,66,35,13,0.00,40.00,9,4,11,0.00
2012-8-20,87,70,50,42,39,34,59,34,20,0.00,40.00,11,4,14,0.00
2012-8-21,92,68,53,54,45,37,85,48,20,0.00,40.00,31,9,36,0.00
2012-8-22,81,67,55,52,41,28,85,45,17,0.00,40.00,20,10,22,0.00
2012-8-23,82,66,49,33,28,21,47,26,14,0.00,40.00,22,10,26,0.00
2012-8-24,69,60,48,27,24,21,38,26,18,0.00,40.00,30,15,35,0.00
2012-8-25,78,54,38,31,26,21,64,38,15,0.00,40.00,12,4,12,0.00
2012-8-26,80,57,42,35,30,25,55,38,19,0.00,40.00,12,4,14,0.00
2012-8-27,94,71,53,53,42,30,77,37,18,0.00,40.00,22,10,26,0.00
2012-8-28,93,72,53,53,40,28,89,46,11,0.00,40.00,23,7,29,0.00
2012-8-29,76,65,58,37,31,24,37,28,17,0.00,40.00,19,10,21,0.00
2012-8-30,80,64,45,36,29,20,50,30,15,0.00,40.00,19,9,22,0.00
2012-8-31,89,69,47,37,31,23,43,26,15,0.00,40.00,21,9,23,0.00
2012-9-1,79,68,55,51,40,15,65,39,17,0.00,40.00,33,16,39,0.00
2012-9-2,74,63,48,31,24,16,29,23,18,0.00,40.00,20,13,24,0.00
2012-9-3,76,62,45,35,28,16,41,28,20,0.00,40.00,17,10,23,0.00
2012-9-4,65,56,45,42,35,25,67,46,28,0.00,40.00,16,8,19,0.00
2012-9-5,77,58,40,39,35,29,76,48,20,0.00,40.00,24,7,30,0.00
2012-9-6,58,50,40,44,42,36,88,72,50,0.00,40.00,12,7,14,0.00
2012-9-7,82,58,36,38,29,12,95,48,11,0.00,40.00,9,4,11,0.00
2012-9-8,84,63,40,31,22,13,46,24,11,0.00,40.00,19,8,23,0.00
2012-9-9,87,70,52,31,24,17,27,19,12,0.00,40.00,20,11,23,0.00
2012-9-10,72,64,55,33,27,21,38,25,17,0.00,40.00,32,19,38,0.00
2012-9-11,61,52,40,22,17,8,39,26,15,0.00,40.00,26,12,30,0.00
2012-9-12,65,51,35,25,17,9,39,27,20,0.00,40.00,12,6,16,0.00
2012-9-13,80,58,40,31,23,15,38,27,16,0.00,40.00,14,6,16,0.00
2012-9-14,83,67,49,28,24,19,36,21,12,0.00,40.00,19,10,22,0.00
2012-9-15,68,56,47,30,23,19,32,28,22,0.00,40.00,12,5,15,0.00
2012-9-16,63,57,44,32,29,25,47,35,31,0.00,40.00,10,6,13,0.00
2012-9-17,77,60,34,34,30,25,77,36,19,0.00,40.00,12,5,17,0.01
2012-9-18,83,64,45,36,28,18,48,30,13,0.00,40.00,19,10,22,0.00
2012-9-19,82,55,39,38,32,26,65,45,19,0.00,40.00,12,5,14,0.00
2012-9-20,82,61,46,38,31,25,51,34,21,0.00,40.00,13,5,14,0.00
2012-9-21,65,49,43,38,31,28,55,50,37,0.00,40.00,4,2,4,0.00
2012-9-22,82,60,42,41,33,-100,65,42,22,0.00,40.00,13,4,17,0.00
2012-9-23,67,54,44,40,35,31,60,48,36,0.00,40.00,8,3,9,0.00
2012-9-24,81,54,42,41,35,33,76,55,24,0.00,40.00,9,2,10,0.00
2012-9-25,78,56,43,45,38,32,77,54,30,0.00,40.00,11,3,12,0.00
2012-9-26,60,51,42,44,40,37,92,67,45,0.00,40.00,11,4,15,0.00
2012-9-27,73,53,36,42,35,30,93,58,23,0.00,40.00,14,4,15,0.00
2012-9-28,83,55,39,36,30,21,78,48,13,0.00,40.00,13,4,15,0.00
2012-9-29,74,63,56,35,31,22,36,30,24,0.00,40.00,16,9,20,0.00
2012-9-30,71,59,44,38,34,30,64,40,27,0.00,40.00,17,7,21,0.00
2012-10-1,76,59,40,35,31,27,77,42,19,0.00,40.00,21,11,26,0.00
2012-10-2,69,62,36,38,30,25,92,33,21,0.00,40.00,24,16,27,0.00
2012-10-3,36,33,31,34,29,24,93,85,68,0.00,40.00,26,14,27,0.01
2012-10-4,34,32,31,27,26,25,85,79,69,0.00,40.00,11,6,13,0.01
2012-10-5,41,31,22,25,18,12,85,64,32,0.00,40.00,8,4,10,0.01
2012-10-6,45,31,24,20,19,17,84,64,35,0.00,40.00,16,10,18,0.00
2012-10-8,44,39,33,39,36,31,92,88,82,0.00,40.00,17,7,19,0.00
2012-10-9,59,42,34,34,28,22,93,65,24,0.00,40.00,12,6,15,0.00
2012-10-10,62,44,33,36,30,26,92,61,26,0.00,40.00,22,13,27,0.01
2012-10-11,54,35,29,33,29,27,92,80,36,0.00,40.00,17,8,21,0.02
2012-10-12,70,52,39,33,23,11,67,38,11,0.00,40.00,25,15,27,0.00
2012-10-13,60,53,48,37,31,22,60,43,29,0.00,40.00,23,12,27,0.00
2012-10-14,63,54,47,38,36,32,62,50,37,0.00,40.00,29,16,34,0.00
2012-10-15,61,56,49,37,34,30,53,44,33,0.00,40.00,26,14,30,0.00
2012-10-16,58,50,40,44,32,19,80,51,32,0.00,40.00,40,22,47,0.01
2012-10-17,48,41,32,19,15,13,50,36,25,0.00,40.00,30,17,37,0.01
2012-10-18,56,47,29,25,20,15,69,36,25,0.00,40.00,27,16,30,0.00
2012-10-19,61,53,47,35,29,23,55,39,34,0.00,40.00,35,20,40,0.00
2012-10-20,51,44,30,36,26,14,72,49,36,0.00,40.00,34,20,38,0.00
2012-10-21,49,35,25,21,17,11,68,48,27,0.00,40.00,15,6,19,0.02
2012-10-22,35,28,22,25,20,16,93,75,58,0.00,40.00,14,7,16,0.02
2012-10-23,25,22,18,22,17,15,92,80,70,0.00,40.00,12,7,14,0.00
2012-10-24,23,21,19,19,18,16,91,88,81,0.00,40.00,9,5,11,0.00
2012-10-25,27,20,11,16,14,8,88,79,57,0.00,40.00,9,4,10,0.00
2012-10-26,33,26,11,22,19,8,86,76,63,0.00,40.00,17,8,21,0.00
2012-10-27,45,32,23,28,25,21,93,77,50,0.00,40.00,16,8,19,0.00
2012-10-28,56,45,36,35,31,28,78,61,37,0.00,40.00,21,15,25,0.00
2012-10-29,59,51,46,38,34,28,68,53,42,0.00,40.00,26,17,34,0.00
2012-10-30,63,51,45,33,30,26,58,46,31,0.00,40.00,24,15,29,0.00
2012-10-31,40,34,30,31,29,28,94,84,64,0.00,40.00,9,4,11,0.00
2012-11-1,59,41,30,31,28,18,90,65,22,0.00,40.00,17,6,20,0.00
2012-11-2,52,42,32,31,27,20,76,58,30,0.00,40.00,17,10,20,0.00
2012-11-3,52,42,31,34,28,24,84,61,34,0.00,40.00,20,10,22,0.00
2012-11-4,57,50,46,38,35,32,63,57,41,0.00,40.00,22,15,24,0.00
2012-11-5,63,56,46,39,34,25,60,46,27,0.00,40.00,25,14,29,0.00
2012-11-6,65,54,45,33,31,30,59,44,29,0.00,40.00,22,12,25,0.00
2012-11-7,58,49,28,32,25,11,67,39,35,0.00,40.00,29,19,32,0.00
2012-11-8,28,26,24,25,22,18,92,87,67,0.00,40.00,12,10,17,0.00
2012-11-9,25,14,8,23,10,3,92,84,79,0.00,40.00,27,18,29,0.00
2012-11-10,13,6,-7,4,-1,-11,82,74,53,0.00,40.00,14,5,16,0.00
2012-11-11,-5,-5,-5,-9,-9,-9,80,80,80,0.00,40.00,7,7,8,0.00
2012-11-13,40,37,35,26,24,22,64,59,53,0.00,40.00,22,16,24,0.00
2012-11-14,42,35,31,27,23,-100,74,62,55,0.00,40.00,19,11,21,0.00
2012-11-15,42,34,28,24,21,18,76,59,43,0.00,40.00,27,16,30,0.00
2012-11-16,45,39,34,29,23,20,66,52,43,0.00,40.00,30,20,33,0.00
2012-11-17,47,40,36,29,28,27,70,60,48,0.00,40.00,22,17,26,0.00
2012-11-18,44,39,30,30,22,15,69,51,36,0.00,40.00,29,17,31,0.00
2012-11-19,52,43,32,25,20,13,50,40,31,0.00,40.00,30,21,35,0.00
2012-11-20,56,50,42,37,28,25,79,42,33,0.00,40.00,39,19,45,0.00
2012-11-21,44,38,31,37,30,17,92,72,46,0.00,40.00,26,14,30,0.00
2012-11-22,40,29,17,21,16,13,90,59,36,0.00,40.00,21,10,24,0.00
2012-11-23,49,38,27,22,16,12,57,41,34,0.00,40.00,29,17,34,0.00
2012-11-24,47,38,25,29,26,20,93,64,34,0.00,40.00,27,15,32,0.00
2012-11-25,38,28,20,26,19,12,93,72,51,0.00,40.00,12,5,14,0.00
2012-11-26,25,23,21,16,14,12,72,68,58,0.00,40.00,13,9,14,0.00
2012-11-27,39,34,27,18,15,10,49,44,39,0.00,40.00,22,13,26,0.00
2012-11-28,52,42,37,19,17,14,43,35,23,0.00,40.00,22,13,26,0.00
2012-11-29,50,44,39,31,26,18,69,51,36,0.00,40.00,27,16,32,0.00
2012-11-30,49,44,37,35,30,24,75,58,43,0.00,40.00,29,14,32,0.00
2012-12-1,49,42,36,33,29,24,79,62,46,0.00,40.00,29,19,35,0.00
2012-12-2,50,43,37,38,32,26,76,66,56,0.00,40.00,26,14,32,0.00
2012-12-3,43,38,35,24,22,18,61,51,39,0.00,40.00,29,19,38,0.00
2012-12-4,47,41,33,33,26,18,79,54,45,0.00,40.00,39,22,42,0.00
2012-12-5,48,42,26,34,23,9,72,48,32,0.00,40.00,39,21,46,0.00
2012-12-6,33,27,20,18,13,-100,72,56,49,0.00,40.00,16,8,18,0.00
2012-12-7,36,29,21,25,20,13,91,69,42,0.00,40.00,23,14,27,0.00
2012-12-8,26,22,4,24,19,1,94,88,75,0.00,40.00,21,14,23,0.00
2012-12-9,25,10,-7,13,2,-11,85,72,56,0.00,40.00,24,12,27,0.00
2012-12-10,32,26,20,17,12,9,69,55,46,0.00,40.00,23,15,27,0.00
2012-12-11,40,33,24,26,21,16,72,61,48,0.00,40.00,29,14,31,0.00
2012-12-12,35,32,28,26,25,22,87,76,63,0.00,40.00,17,9,18,0.00
2012-12-13,34,29,25,14,12,9,60,49,42,0.00,40.00,22,16,26,0.00
2012-12-14,38,28,20,16,13,9,64,53,40,0.00,40.00,17,10,19,0.00
2012-12-15,33,25,17,17,12,9,75,59,40,0.00,40.00,19,9,22,0.00
2012-12-16,32,28,23,16,13,9,63,53,48,0.00,40.00,34,18,37,0.00
2012-12-17,39,31,25,25,16,9,78,54,39,0.00,40.00,31,19,37,0.00
2012-12-18,29,24,14,9,6,2,67,47,36,0.00,40.00,23,13,29,0.00
2012-12-19,26,21,16,9,7,5,67,54,44,0.00,40.00,34,18,39,0.00
2012-12-20,39,30,22,18,12,6,52,47,42,0.00,40.00,38,26,42,0.00
2012-12-21,40,32,14,14,11,9,81,43,35,0.00,40.00,27,19,30,0.00
2012-12-22,14,10,9,9,7,6,90,87,81,0.00,40.00,9,7,11,0.00
2012-12-23,37,11,3,22,6,0,90,83,42,0.00,40.00,16,8,19,0.00
2012-12-24,4,-1,-4,1,-6,-9,88,82,78,0.00,40.00,13,6,14,0.00
2012-12-25,10,0,-10,2,-5,-14,82,79,72,0.00,40.00,8,3,8,0.00
2012-12-26,7,2,-2,3,-2,-6,84,81,73,0.00,40.00,7,3,8,0.00
2012-12-27,31,15,-1,19,8,-4,88,75,57,0.00,40.00,13,6,15,0.00
2012-12-28,37,23,11,16,12,4,74,62,36,0.00,40.00,19,9,21,0.00
2012-12-29,27,24,19,17,13,9,89,63,56,0.00,40.00,20,13,23,0.00
2012-12-30,26,19,13,17,12,9,92,76,60,0.00,40.00,19,9,21,0.00
2012-12-31,26,19,11,15,10,3,72,68,61,0.00,40.00,17,13,19,0.00
2013-1-1,29,22,14,17,12,6,74,66,59,0.00,40.00,22,11,24,0.00